Pleasant Ridge Plt, Maine
Current Conditions -  °F | °C
As of 4:35 PM on Saturday 25 Oct 2014 (Local Time) from KWVL Reporting Station
Clear Clear  
Wind Chill: 61°   Ceiling: Unl
Heat Index: 61°   Visibility: 10mi
Dew Point: 41°   Wind: 3mph
Humidity: 48%   Direction: 140°SE
Pressure: 29.51"   Gusts: NA
Location:  45.1348°N, 69.8823°W
Report Text: KWVL 252035Z 14003KT 10SM CLR 16/05 A2951 RMK AO1
Loading
Personal Weather Stations






























Interactive Weather Map
Tropical Storm Tracking
New forecast layout! Learn more

10-Day Weather Forecast

Advertisements
Track Severe Weather on mobile